Southill, Virginia
Current Conditions -  °F | °C
As of 5:55 PM on Wednesday 22 Oct 2014 (Local Time) from KAVC Reporting Station
Overcast Overcast  
Wind Chill: 61°   Ceiling: 6000
Heat Index: 61°   Visibility: 10mi
Dew Point: 46°   Wind: 8mph
Humidity: 59%   Direction: 340°NNW
Pressure: 30.01"   Gusts: NA
Location:  36.743°N, 78.1806°W
Report Text: KAVC 222155Z AUTO 34007KT 10SM OVC060 16/08 A3001 RMK AO2 LTG DSNT E
Loading
Personal Weather Stations






























Interactive Weather Map
Tropical Storm Tracking
New forecast layout! Learn more

10-Day Weather Forecast

Advertisements
Track Severe Weather on mobile